sensor_id;sensor_type;location;lat;lon;timestamp;temperature;humidity
38398;DHT22;24179;52.094;4.408;2022-09-01T00:00:10;16.30;99.90
38398;DHT22;24179;52.094;4.408;2022-09-01T00:03:12;16.30;99.90
38398;DHT22;24179;52.094;4.408;2022-09-01T00:06:16;16.20;99.90
38398;DHT22;24179;52.094;4.408;2022-09-01T00:09:22;16.20;99.90
38398;DHT22;24179;52.094;4.408;2022-09-01T00:12:22;16.10;99.90
38398;DHT22;24179;52.094;4.408;2022-09-01T00:15:24;16.10;99.90
38398;DHT22;24179;52.094;4.408;2022-09-01T00:18:25;16.00;99.90
38398;DHT22;24179;52.094;4.408;2022-09-01T00:21:27;16.10;99.90
38398;DHT22;24179;52.094;4.408;2022-09-01T00:24:28;16.10;99.90
38398;DHT22;24179;52.094;4.408;2022-09-01T00:27:28;16.10;99.90
38398;DHT22;24179;52.094;4.408;2022-09-01T00:30:29;16.10;99.90
38398;DHT22;24179;52.094;4.408;2022-09-01T00:33:30;16.00;99.90
38398;DHT22;24179;52.094;4.408;2022-09-01T00:36:31;15.90;99.90
38398;DHT22;24179;52.094;4.408;2022-09-01T00:39:31;15.90;99.90
38398;DHT22;24179;52.094;4.408;2022-09-01T00:42:32;15.90;99.90
38398;DHT22;24179;52.094;4.408;2022-09-01T00:45:33;15.80;99.90
38398;DHT22;24179;52.094;4.408;2022-09-01T00:48:33;15.80;99.90
38398;DHT22;24179;52.094;4.408;2022-09-01T00:51:35;15.80;99.90
38398;DHT22;24179;52.094;4.408;2022-09-01T00:54:39;15.70;99.90
38398;DHT22;24179;52.094;4.408;2022-09-01T00:57:40;15.70;99.90
38398;DHT22;24179;52.094;4.408;2022-09-01T01:00:41;15.70;99.90
38398;DHT22;24179;52.094;4.408;2022-09-01T01:03:42;15.70;99.90
38398;DHT22;24179;52.094;4.408;2022-09-01T01:06:45;15.60;99.90
38398;DHT22;24179;52.094;4.408;2022-09-01T01:09:49;15.60;99.90
38398;DHT22;24179;52.094;4.408;2022-09-01T01:12:49;15.50;99.90
38398;DHT22;24179;52.094;4.408;2022-09-01T01:15:50;15.50;99.90
38398;DHT22;24179;52.094;4.408;2022-09-01T01:18:51;15.50;99.90
38398;DHT22;24179;52.094;4.408;2022-09-01T01:21:51;15.50;99.90
38398;DHT22;24179;52.094;4.408;2022-09-01T01:25:10;15.40;99.90
38398;DHT22;24179;52.094;4.408;2022-09-01T01:28:19;15.30;99.90
38398;DHT22;24179;52.094;4.408;2022-09-01T01:31:21;15.20;99.90
38398;DHT22;24179;52.094;4.408;2022-09-01T01:34:23;15.30;99.90
38398;DHT22;24179;52.094;4.408;2022-09-01T01:37:24;15.30;99.90
38398;DHT22;24179;52.094;4.408;2022-09-01T01:40:27;15.30;99.90
38398;DHT22;24179;52.094;4.408;2022-09-01T01:43:28;15.30;99.90
38398;DHT22;24179;52.094;4.408;2022-09-01T01:46:30;15.30;99.90
38398;DHT22;24179;52.094;4.408;2022-09-01T01:49:31;15.30;99.90
38398;DHT22;24179;52.094;4.408;2022-09-01T01:52:31;15.20;99.90
38398;DHT22;24179;52.094;4.408;2022-09-01T01:55:34;15.20;99.90
38398;DHT22;24179;52.094;4.408;2022-09-01T01:58:34;15.20;99.90
38398;DHT22;24179;52.094;4.408;2022-09-01T02:01:35;15.20;99.90
38398;DHT22;24179;52.094;4.408;2022-09-01T02:04:35;15.20;99.90
38398;DHT22;24179;52.094;4.408;2022-09-01T02:07:36;15.20;99.90
38398;DHT22;24179;52.094;4.408;2022-09-01T02:10:41;15.10;99.90
38398;DHT22;24179;52.094;4.408;2022-09-01T02:13:42;15.10;99.90
38398;DHT22;24179;52.094;4.408;2022-09-01T02:16:46;15.10;99.90
38398;DHT22;24179;52.094;4.408;2022-09-01T02:19:46;15.10;99.90
38398;DHT22;24179;52.094;4.408;2022-09-01T02:22:47;15.00;99.90
38398;DHT22;24179;52.094;4.408;2022-09-01T02:25:48;15.00;99.90
38398;DHT22;24179;52.094;4.408;2022-09-01T02:28:50;15.00;99.90
38398;DHT22;24179;52.094;4.408;2022-09-01T02:31:51;15.00;99.90
38398;DHT22;24179;52.094;4.408;2022-09-01T02:34:52;14.90;99.90
38398;DHT22;24179;52.094;4.408;2022-09-01T02:37:53;14.90;99.90
38398;DHT22;24179;52.094;4.408;2022-09-01T02:40:56;14.90;99.90
38398;DHT22;24179;52.094;4.408;2022-09-01T02:43:57;14.90;99.90
38398;DHT22;24179;52.094;4.408;2022-09-01T02:47:01;14.80;99.90
38398;DHT22;24179;52.094;4.408;2022-09-01T02:50:04;14.80;99.90
38398;DHT22;24179;52.094;4.408;2022-09-01T02:53:06;14.80;99.90
38398;DHT22;24179;52.094;4.408;2022-09-01T02:56:10;14.80;99.90
38398;DHT22;24179;52.094;4.408;2022-09-01T02:59:14;14.80;99.90
38398;DHT22;24179;52.094;4.408;2022-09-01T03:02:15;14.80;99.90
38398;DHT22;24179;52.094;4.408;2022-09-01T03:05:16;14.70;99.90
38398;DHT22;24179;52.094;4.408;2022-09-01T03:08:18;14.70;99.90
38398;DHT22;24179;52.094;4.408;2022-09-01T03:11:19;14.80;99.90
38398;DHT22;24179;52.094;4.408;2022-09-01T03:14:20;14.70;99.90
38398;DHT22;24179;52.094;4.408;2022-09-01T03:17:21;14.70;99.90
38398;DHT22;24179;52.094;4.408;2022-09-01T03:20:21;14.70;99.90
38398;DHT22;24179;52.094;4.408;2022-09-01T03:23:22;14.60;99.90
38398;DHT22;24179;52.094;4.408;2022-09-01T03:26:24;14.60;99.90
38398;DHT22;24179;52.094;4.408;2022-09-01T03:29:24;14.60;99.90
38398;DHT22;24179;52.094;4.408;2022-09-01T03:32:25;14.60;99.90
38398;DHT22;24179;52.094;4.408;2022-09-01T03:35:26;14.60;99.90
38398;DHT22;24179;52.094;4.408;2022-09-01T03:38:27;14.60;99.90
38398;DHT22;24179;52.094;4.408;2022-09-01T03:41:28;14.60;99.90
38398;DHT22;24179;52.094;4.408;2022-09-01T03:44:30;14.60;99.90
38398;DHT22;24179;52.094;4.408;2022-09-01T03:47:39;14.60;99.90
38398;DHT22;24179;52.094;4.408;2022-09-01T03:50:40;14.60;99.90
38398;DHT22;24179;52.094;4.408;2022-09-01T03:53:45;14.60;99.90
38398;DHT22;24179;52.094;4.408;2022-09-01T03:56:46;14.60;99.90
38398;DHT22;24179;52.094;4.408;2022-09-01T03:59:46;14.60;99.90
38398;DHT22;24179;52.094;4.408;2022-09-01T04:02:48;14.60;99.90
38398;DHT22;24179;52.094;4.408;2022-09-01T04:05:50;14.60;99.90
38398;DHT22;24179;52.094;4.408;2022-09-01T04:08:51;14.50;99.90
38398;DHT22;24179;52.094;4.408;2022-09-01T04:12:02;14.50;99.90
38398;DHT22;24179;52.094;4.408;2022-09-01T04:15:05;14.50;99.90
38398;DHT22;24179;52.094;4.408;2022-09-01T04:18:07;14.40;99.90
38398;DHT22;24179;52.094;4.408;2022-09-01T04:21:19;14.40;99.90
38398;DHT22;24179;52.094;4.408;2022-09-01T04:24:19;14.40;99.90
38398;DHT22;24179;52.094;4.408;2022-09-01T04:27:23;14.40;99.90
38398;DHT22;24179;52.094;4.408;2022-09-01T04:30:26;14.40;99.90
38398;DHT22;24179;52.094;4.408;2022-09-01T04:33:31;14.40;99.90
38398;DHT22;24179;52.094;4.408;2022-09-01T04:36:39;14.40;99.90
38398;DHT22;24179;52.094;4.408;2022-09-01T04:39:40;14.40;99.90
38398;DHT22;24179;52.094;4.408;2022-09-01T04:42:47;14.40;99.90
38398;DHT22;24179;52.094;4.408;2022-09-01T04:45:48;14.50;99.90
38398;DHT22;24179;52.094;4.408;2022-09-01T04:48:51;14.50;99.90
38398;DHT22;24179;52.094;4.408;2022-09-01T04:51:52;14.50;99.90
38398;DHT22;24179;52.094;4.408;2022-09-01T04:54:53;14.50;99.90
38398;DHT22;24179;52.094;4.408;2022-09-01T04:57:54;14.50;99.90
38398;DHT22;24179;52.094;4.408;2022-09-01T05:00:56;14.50;99.90
38398;DHT22;24179;52.094;4.408;2022-09-01T05:03:59;14.40;99.90
38398;DHT22;24179;52.094;4.408;2022-09-01T05:07:01;14.50;99.90
38398;DHT22;24179;52.094;4.408;2022-09-01T05:10:02;14.50;99.90
38398;DHT22;24179;52.094;4.408;2022-09-01T05:13:02;14.50;99.90
38398;DHT22;24179;52.094;4.408;2022-09-01T05:16:10;14.50;99.90
38398;DHT22;24179;52.094;4.408;2022-09-01T05:19:12;14.40;99.90
38398;DHT22;24179;52.094;4.408;2022-09-01T05:22:16;14.40;99.90
38398;DHT22;24179;52.094;4.408;2022-09-01T05:25:21;14.40;99.90
38398;DHT22;24179;52.094;4.408;2022-09-01T05:28:22;14.40;99.90
38398;DHT22;24179;52.094;4.408;2022-09-01T05:31:27;14.50;99.90
38398;DHT22;24179;52.094;4.408;2022-09-01T05:34:28;14.40;99.90
38398;DHT22;24179;52.094;4.408;2022-09-01T05:37:30;14.40;99.90
38398;DHT22;24179;52.094;4.408;2022-09-01T05:40:31;14.40;99.90
38398;DHT22;24179;52.094;4.408;2022-09-01T05:43:33;14.50;99.90
38398;DHT22;24179;52.094;4.408;2022-09-01T05:46:35;14.60;99.90
38398;DHT22;24179;52.094;4.408;2022-09-01T05:49:36;14.70;99.90
38398;DHT22;24179;52.094;4.408;2022-09-01T05:52:38;14.90;99.90
38398;DHT22;24179;52.094;4.408;2022-09-01T05:55:39;14.90;99.90
38398;DHT22;24179;52.094;4.408;2022-09-01T05:58:40;14.90;99.90
38398;DHT22;24179;52.094;4.408;2022-09-01T06:01:43;14.90;99.90
38398;DHT22;24179;52.094;4.408;2022-09-01T06:04:47;14.90;99.90
38398;DHT22;24179;52.094;4.408;2022-09-01T06:07:48;14.90;99.90
38398;DHT22;24179;52.094;4.408;2022-09-01T06:10:48;15.00;99.90
38398;DHT22;24179;52.094;4.408;2022-09-01T06:13:49;15.10;99.90
38398;DHT22;24179;52.094;4.408;2022-09-01T06:16:51;15.10;99.90
38398;DHT22;24179;52.094;4.408;2022-09-01T06:19:53;15.20;99.90
38398;DHT22;24179;52.094;4.408;2022-09-01T06:22:57;15.20;99.90
38398;DHT22;24179;52.094;4.408;2022-09-01T06:25:58;15.30;99.90
38398;DHT22;24179;52.094;4.408;2022-09-01T06:29:01;15.30;99.90
38398;DHT22;24179;52.094;4.408;2022-09-01T06:32:02;15.30;99.90
38398;DHT22;24179;52.094;4.408;2022-09-01T06:35:03;15.40;99.90
38398;DHT22;24179;52.094;4.408;2022-09-01T06:38:07;15.40;99.90
38398;DHT22;24179;52.094;4.408;2022-09-01T06:41:07;15.50;99.90
38398;DHT22;24179;52.094;4.408;2022-09-01T06:44:14;15.50;99.90
38398;DHT22;24179;52.094;4.408;2022-09-01T06:47:16;15.60;99.90
38398;DHT22;24179;52.094;4.408;2022-09-01T06:50:18;15.70;99.90
38398;DHT22;24179;52.094;4.408;2022-09-01T06:53:21;15.80;99.90
38398;DHT22;24179;52.094;4.408;2022-09-01T06:56:21;15.90;99.90
38398;DHT22;24179;52.094;4.408;2022-09-01T06:59:26;16.10;99.90
38398;DHT22;24179;52.094;4.408;2022-09-01T07:02:28;16.40;99.90
38398;DHT22;24179;52.094;4.408;2022-09-01T07:05:30;16.90;99.90
38398;DHT22;24179;52.094;4.408;2022-09-01T07:08:33;17.20;99.90
38398;DHT22;24179;52.094;4.408;2022-09-01T07:11:38;17.40;99.90
38398;DHT22;24179;52.094;4.408;2022-09-01T07:14:38;17.70;99.90
38398;DHT22;24179;52.094;4.408;2022-09-01T07:17:39;18.50;99.90
38398;DHT22;24179;52.094;4.408;2022-09-01T07:20:40;19.50;99.90
38398;DHT22;24179;52.094;4.408;2022-09-01T07:23:41;20.30;99.90
38398;DHT22;24179;52.094;4.408;2022-09-01T07:26:43;21.10;99.90
38398;DHT22;24179;52.094;4.408;2022-09-01T07:29:43;22.00;99.90
38398;DHT22;24179;52.094;4.408;2022-09-01T07:32:44;22.50;99.90
38398;DHT22;24179;52.094;4.408;2022-09-01T07:35:45;22.90;99.90
38398;DHT22;24179;52.094;4.408;2022-09-01T07:38:46;23.50;99.90
38398;DHT22;24179;52.094;4.408;2022-09-01T07:41:53;24.00;99.90
38398;DHT22;24179;52.094;4.408;2022-09-01T07:44:53;24.40;99.90
38398;DHT22;24179;52.094;4.408;2022-09-01T07:47:54;24.80;98.90
38398;DHT22;24179;52.094;4.408;2022-09-01T07:50:54;24.50;98.60
38398;DHT22;24179;52.094;4.408;2022-09-01T07:53:57;24.80;98.30
38398;DHT22;24179;52.094;4.408;2022-09-01T07:56:58;26.10;97.00
38398;DHT22;24179;52.094;4.408;2022-09-01T07:59:58;26.60;96.60
38398;DHT22;24179;52.094;4.408;2022-09-01T08:02:59;26.40;95.00
38398;DHT22;24179;52.094;4.408;2022-09-01T08:06:05;25.80;95.40
38398;DHT22;24179;52.094;4.408;2022-09-01T08:09:06;26.00;95.50
38398;DHT22;24179;52.094;4.408;2022-09-01T08:12:07;26.40;95.30
38398;DHT22;24179;52.094;4.408;2022-09-01T08:15:08;26.20;94.70
38398;DHT22;24179;52.094;4.408;2022-09-01T08:18:12;26.20;94.70
38398;DHT22;24179;52.094;4.408;2022-09-01T08:21:13;26.40;94.50
38398;DHT22;24179;52.094;4.408;2022-09-01T08:24:14;26.50;94.30
38398;DHT22;24179;52.094;4.408;2022-09-01T08:27:15;26.50;94.00
38398;DHT22;24179;52.094;4.408;2022-09-01T08:30:15;26.50;94.20
38398;DHT22;24179;52.094;4.408;2022-09-01T08:33:16;26.70;94.20
38398;DHT22;24179;52.094;4.408;2022-09-01T08:36:17;27.00;94.30
38398;DHT22;24179;52.094;4.408;2022-09-01T08:39:18;27.40;94.40
38398;DHT22;24179;52.094;4.408;2022-09-01T08:42:36;27.80;93.40
38398;DHT22;24179;52.094;4.408;2022-09-01T08:45:54;28.40;93.10
38398;DHT22;24179;52.094;4.408;2022-09-01T08:48:57;28.60;92.10
38398;DHT22;24179;52.094;4.408;2022-09-01T08:55:44;28.50;91.90
38398;DHT22;24179;52.094;4.408;2022-09-01T08:58:46;28.80;91.50
38398;DHT22;24179;52.094;4.408;2022-09-01T09:08:58;29.10;90.80
38398;DHT22;24179;52.094;4.408;2022-09-01T09:12:20;29.20;90.50
38398;DHT22;24179;52.094;4.408;2022-09-01T09:18:47;29.80;90.60
38398;DHT22;24179;52.094;4.408;2022-09-01T09:21:50;29.70;89.70
38398;DHT22;24179;52.094;4.408;2022-09-01T09:25:00;29.50;89.80
38398;DHT22;24179;52.094;4.408;2022-09-01T09:28:02;29.60;90.20
38398;DHT22;24179;52.094;4.408;2022-09-01T09:34:37;30.30;88.90
38398;DHT22;24179;52.094;4.408;2022-09-01T09:37:38;30.40;88.60
38398;DHT22;24179;52.094;4.408;2022-09-01T09:40:55;30.70;87.90
38398;DHT22;24179;52.094;4.408;2022-09-01T09:47:54;31.20;86.20
38398;DHT22;24179;52.094;4.408;2022-09-01T09:51:14;30.70;86.10
38398;DHT22;24179;52.094;4.408;2022-09-01T09:54:35;30.60;86.30
38398;DHT22;24179;52.094;4.408;2022-09-01T09:57:37;30.90;85.30
38398;DHT22;24179;52.094;4.408;2022-09-01T10:00:38;30.70;84.50
38398;DHT22;24179;52.094;4.408;2022-09-01T10:03:48;30.30;83.90
38398;DHT22;24179;52.094;4.408;2022-09-01T10:06:49;30.70;83.80
38398;DHT22;24179;52.094;4.408;2022-09-01T10:09:52;30.90;84.90
38398;DHT22;24179;52.094;4.408;2022-09-01T10:12:53;31.40;82.90
38398;DHT22;24179;52.094;4.408;2022-09-01T10:15:57;31.70;81.80
38398;DHT22;24179;52.094;4.408;2022-09-01T10:19:00;31.30;82.10
38398;DHT22;24179;52.094;4.408;2022-09-01T10:22:02;31.70;81.60
38398;DHT22;24179;52.094;4.408;2022-09-01T10:25:05;32.00;80.90
38398;DHT22;24179;52.094;4.408;2022-09-01T10:28:14;32.00;79.40
38398;DHT22;24179;52.094;4.408;2022-09-01T10:31:15;32.20;78.80
38398;DHT22;24179;52.094;4.408;2022-09-01T10:34:16;32.40;79.50
38398;DHT22;24179;52.094;4.408;2022-09-01T10:37:18;32.70;78.20
38398;DHT22;24179;52.094;4.408;2022-09-01T10:43:47;32.60;77.50
38398;DHT22;24179;52.094;4.408;2022-09-01T10:46:49;32.60;77.40
38398;DHT22;24179;52.094;4.408;2022-09-01T10:52:57;32.90;75.40
38398;DHT22;24179;52.094;4.408;2022-09-01T11:02:10;32.10;76.40
38398;DHT22;24179;52.094;4.408;2022-09-01T11:05:11;32.40;76.90
38398;DHT22;24179;52.094;4.408;2022-09-01T11:11:39;31.90;75.50
38398;DHT22;24179;52.094;4.408;2022-09-01T11:20:51;32.50;76.20
38398;DHT22;24179;52.094;4.408;2022-09-01T11:24:42;33.40;75.50
38398;DHT22;24179;52.094;4.408;2022-09-01T11:27:54;32.00;74.10
38398;DHT22;24179;52.094;4.408;2022-09-01T11:36:53;28.80;78.80
38398;DHT22;24179;52.094;4.408;2022-09-01T11:39:54;28.30;78.70
38398;DHT22;24179;52.094;4.408;2022-09-01T11:42:58;27.90;79.50
38398;DHT22;24179;52.094;4.408;2022-09-01T11:46:19;28.80;79.00
38398;DHT22;24179;52.094;4.408;2022-09-01T11:49:31;28.70;79.40
38398;DHT22;24179;52.094;4.408;2022-09-01T11:52:36;29.60;77.10
38398;DHT22;24179;52.094;4.408;2022-09-01T11:55:41;30.30;77.60
38398;DHT22;24179;52.094;4.408;2022-09-01T11:58:42;30.50;75.90
38398;DHT22;24179;52.094;4.408;2022-09-01T12:01:42;30.00;75.80
38398;DHT22;24179;52.094;4.408;2022-09-01T12:04:43;30.30;76.80
38398;DHT22;24179;52.094;4.408;2022-09-01T12:07:45;31.60;76.30
38398;DHT22;24179;52.094;4.408;2022-09-01T12:10:47;31.80;74.60
38398;DHT22;24179;52.094;4.408;2022-09-01T12:13:55;32.50;73.20
38398;DHT22;24179;52.094;4.408;2022-09-01T12:16:58;32.80;74.80
38398;DHT22;24179;52.094;4.408;2022-09-01T12:20:18;33.10;73.20
38398;DHT22;24179;52.094;4.408;2022-09-01T12:26:26;33.20;71.80
38398;DHT22;24179;52.094;4.408;2022-09-01T12:29:28;32.80;71.50
38398;DHT22;24179;52.094;4.408;2022-09-01T12:32:29;33.00;69.70
38398;DHT22;24179;52.094;4.408;2022-09-01T12:35:30;33.30;70.60
38398;DHT22;24179;52.094;4.408;2022-09-01T12:38:30;33.50;70.70
38398;DHT22;24179;52.094;4.408;2022-09-01T12:41:33;34.10;69.50
38398;DHT22;24179;52.094;4.408;2022-09-01T12:50:46;33.60;68.20
38398;DHT22;24179;52.094;4.408;2022-09-01T12:54:05;33.90;69.80
38398;DHT22;24179;52.094;4.408;2022-09-01T12:57:05;34.30;68.70
38398;DHT22;24179;52.094;4.408;2022-09-01T13:03:11;34.70;67.40
38398;DHT22;24179;52.094;4.408;2022-09-01T13:06:13;34.40;68.30
38398;DHT22;24179;52.094;4.408;2022-09-01T13:09:13;34.20;67.30
38398;DHT22;24179;52.094;4.408;2022-09-01T13:12:15;34.00;66.50
38398;DHT22;24179;52.094;4.408;2022-09-01T13:15:16;33.70;66.30
38398;DHT22;24179;52.094;4.408;2022-09-01T13:18:17;33.60;67.10
38398;DHT22;24179;52.094;4.408;2022-09-01T13:21:18;33.40;67.10
38398;DHT22;24179;52.094;4.408;2022-09-01T13:24:18;33.30;66.40
38398;DHT22;24179;52.094;4.408;2022-09-01T13:27:19;33.00;65.50
38398;DHT22;24179;52.094;4.408;2022-09-01T13:30:22;33.00;67.80
38398;DHT22;24179;52.094;4.408;2022-09-01T13:33:23;32.90;66.10
38398;DHT22;24179;52.094;4.408;2022-09-01T13:36:24;33.20;67.20
38398;DHT22;24179;52.094;4.408;2022-09-01T13:39:24;34.00;65.50
38398;DHT22;24179;52.094;4.408;2022-09-01T13:42:26;33.90;65.70
38398;DHT22;24179;52.094;4.408;2022-09-01T13:45:27;33.70;65.80
38398;DHT22;24179;52.094;4.408;2022-09-01T13:48:28;33.90;65.00
38398;DHT22;24179;52.094;4.408;2022-09-01T13:51:28;33.80;63.70
38398;DHT22;24179;52.094;4.408;2022-09-01T13:54:29;33.70;65.50
38398;DHT22;24179;52.094;4.408;2022-09-01T13:57:30;33.80;64.20
38398;DHT22;24179;52.094;4.408;2022-09-01T14:00:37;33.80;65.20
38398;DHT22;24179;52.094;4.408;2022-09-01T14:03:38;34.10;64.80
38398;DHT22;24179;52.094;4.408;2022-09-01T14:06:42;34.60;64.30
38398;DHT22;24179;52.094;4.408;2022-09-01T14:09:44;34.30;65.00
38398;DHT22;24179;52.094;4.408;2022-09-01T14:12:45;34.30;63.60
38398;DHT22;24179;52.094;4.408;2022-09-01T14:15:46;34.10;62.70
38398;DHT22;24179;52.094;4.408;2022-09-01T14:18:48;34.20;63.50
38398;DHT22;24179;52.094;4.408;2022-09-01T14:21:49;34.40;63.90
38398;DHT22;24179;52.094;4.408;2022-09-01T14:24:49;34.60;64.30
38398;DHT22;24179;52.094;4.408;2022-09-01T14:27:50;34.60;62.90
38398;DHT22;24179;52.094;4.408;2022-09-01T14:30:52;34.60;63.40
38398;DHT22;24179;52.094;4.408;2022-09-01T14:33:53;34.70;63.10
38398;DHT22;24179;52.094;4.408;2022-09-01T14:36:53;34.70;62.60
38398;DHT22;24179;52.094;4.408;2022-09-01T14:39:57;34.90;63.00
38398;DHT22;24179;52.094;4.408;2022-09-01T14:42:57;34.90;62.50
38398;DHT22;24179;52.094;4.408;2022-09-01T14:46:03;34.90;62.70
38398;DHT22;24179;52.094;4.408;2022-09-01T14:49:05;35.00;62.10
38398;DHT22;24179;52.094;4.408;2022-09-01T14:52:07;34.90;62.20
38398;DHT22;24179;52.094;4.408;2022-09-01T14:55:08;34.90;61.60
38398;DHT22;24179;52.094;4.408;2022-09-01T14:58:09;35.00;62.00
38398;DHT22;24179;52.094;4.408;2022-09-01T15:01:10;34.90;61.50
38398;DHT22;24179;52.094;4.408;2022-09-01T15:04:11;34.50;62.30
38398;DHT22;24179;52.094;4.408;2022-09-01T15:07:12;34.70;62.10
38398;DHT22;24179;52.094;4.408;2022-09-01T15:10:15;34.90;61.40
38398;DHT22;24179;52.094;4.408;2022-09-01T15:13:16;35.00;61.50
38398;DHT22;24179;52.094;4.408;2022-09-01T15:16:21;34.90;60.60
38398;DHT22;24179;52.094;4.408;2022-09-01T15:19:22;34.90;60.30
38398;DHT22;24179;52.094;4.408;2022-09-01T15:22:23;34.80;60.40
38398;DHT22;24179;52.094;4.408;2022-09-01T15:25:24;34.80;60.80
38398;DHT22;24179;52.094;4.408;2022-09-01T15:28:25;34.80;60.40
38398;DHT22;24179;52.094;4.408;2022-09-01T15:31:27;34.60;60.90
38398;DHT22;24179;52.094;4.408;2022-09-01T15:34:30;34.50;61.20
38398;DHT22;24179;52.094;4.408;2022-09-01T15:37:31;34.60;62.00
38398;DHT22;24179;52.094;4.408;2022-09-01T15:40:32;34.30;61.10
38398;DHT22;24179;52.094;4.408;2022-09-01T15:43:33;34.90;62.00
38398;DHT22;24179;52.094;4.408;2022-09-01T15:46:35;35.00;61.60
38398;DHT22;24179;52.094;4.408;2022-09-01T15:49:38;34.70;61.80
38398;DHT22;24179;52.094;4.408;2022-09-01T15:52:59;34.70;62.40
38398;DHT22;24179;52.094;4.408;2022-09-01T15:56:01;34.60;60.00
38398;DHT22;24179;52.094;4.408;2022-09-01T15:59:03;34.60;61.00
38398;DHT22;24179;52.094;4.408;2022-09-01T16:02:04;34.50;62.30
38398;DHT22;24179;52.094;4.408;2022-09-01T16:05:07;34.50;62.40
38398;DHT22;24179;52.094;4.408;2022-09-01T16:08:09;34.60;63.20
38398;DHT22;24179;52.094;4.408;2022-09-01T16:11:10;34.80;63.10
38398;DHT22;24179;52.094;4.408;2022-09-01T16:14:12;35.10;62.60
38398;DHT22;24179;52.094;4.408;2022-09-01T16:17:22;35.20;62.20
38398;DHT22;24179;52.094;4.408;2022-09-01T16:20:33;35.20;61.50
38398;DHT22;24179;52.094;4.408;2022-09-01T16:23:42;35.00;62.00
38398;DHT22;24179;52.094;4.408;2022-09-01T16:26:46;34.60;62.70
38398;DHT22;24179;52.094;4.408;2022-09-01T16:29:48;34.40;61.80
38398;DHT22;24179;52.094;4.408;2022-09-01T16:32:50;34.30;62.90
38398;DHT22;24179;52.094;4.408;2022-09-01T16:35:55;34.10;62.40
38398;DHT22;24179;52.094;4.408;2022-09-01T16:45:27;33.20;63.60
38398;DHT22;24179;52.094;4.408;2022-09-01T16:48:35;33.10;64.20
38398;DHT22;24179;52.094;4.408;2022-09-01T16:58:08;32.60;64.60
38398;DHT22;24179;52.094;4.408;2022-09-01T17:04:36;32.00;64.60
38398;DHT22;24179;52.094;4.408;2022-09-01T17:07:42;31.80;64.10
38398;DHT22;24179;52.094;4.408;2022-09-01T17:13:50;31.60;64.70
38398;DHT22;24179;52.094;4.408;2022-09-01T17:16:57;31.40;64.80
38398;DHT22;24179;52.094;4.408;2022-09-01T17:20:00;31.10;65.00
38398;DHT22;24179;52.094;4.408;2022-09-01T17:23:01;30.80;65.90
38398;DHT22;24179;52.094;4.408;2022-09-01T17:26:13;30.20;66.80
38398;DHT22;24179;52.094;4.408;2022-09-01T17:29:17;29.80;67.20
38398;DHT22;24179;52.094;4.408;2022-09-01T17:32:39;29.40;67.90
38398;DHT22;24179;52.094;4.408;2022-09-01T17:35:50;28.90;68.20
38398;DHT22;24179;52.094;4.408;2022-09-01T18:11:19;22.50;77.70
38398;DHT22;24179;52.094;4.408;2022-09-01T18:14:21;22.20;78.90
38398;DHT22;24179;52.094;4.408;2022-09-01T18:17:27;21.90;79.60
38398;DHT22;24179;52.094;4.408;2022-09-01T18:20:31;21.70;80.20
38398;DHT22;24179;52.094;4.408;2022-09-01T18:23:34;21.50;80.50
38398;DHT22;24179;52.094;4.408;2022-09-01T18:26:37;21.30;81.90
38398;DHT22;24179;52.094;4.408;2022-09-01T18:29:38;21.30;81.80
38398;DHT22;24179;52.094;4.408;2022-09-01T18:32:44;21.10;82.40
38398;DHT22;24179;52.094;4.408;2022-09-01T18:35:52;21.00;82.30
38398;DHT22;24179;52.094;4.408;2022-09-01T18:38:55;20.90;83.40
38398;DHT22;24179;52.094;4.408;2022-09-01T18:48:30;20.40;85.90
38398;DHT22;24179;52.094;4.408;2022-09-01T18:51:39;20.30;85.40
38398;DHT22;24179;52.094;4.408;2022-09-01T18:57:51;20.10;87.50
38398;DHT22;24179;52.094;4.408;2022-09-01T19:00:58;20.00;87.40
38398;DHT22;24179;52.094;4.408;2022-09-01T19:10:34;19.60;89.80
38398;DHT22;24179;52.094;4.408;2022-09-01T19:20:03;19.40;90.90
38398;DHT22;24179;52.094;4.408;2022-09-01T19:23:11;19.30;91.20
38398;DHT22;24179;52.094;4.408;2022-09-01T19:26:16;19.20;92.20
38398;DHT22;24179;52.094;4.408;2022-09-01T19:29:18;19.20;92.10
38398;DHT22;24179;52.094;4.408;2022-09-01T19:32:20;19.10;92.40
38398;DHT22;24179;52.094;4.408;2022-09-01T19:35:21;19.10;92.50
38398;DHT22;24179;52.094;4.408;2022-09-01T19:38:24;19.00;92.70
38398;DHT22;24179;52.094;4.408;2022-09-01T19:41:29;18.90;93.30
38398;DHT22;24179;52.094;4.408;2022-09-01T19:44:46;18.80;93.40
38398;DHT22;24179;52.094;4.408;2022-09-01T19:53:57;18.70;94.40
38398;DHT22;24179;52.094;4.408;2022-09-01T19:57:12;18.60;94.80
38398;DHT22;24179;52.094;4.408;2022-09-01T20:01:02;18.60;94.60
38398;DHT22;24179;52.094;4.408;2022-09-01T20:03:39;18.60;94.90
38398;DHT22;24179;52.094;4.408;2022-09-01T20:06:45;18.50;95.20
38398;DHT22;24179;52.094;4.408;2022-09-01T20:13:14;18.50;95.70
38398;DHT22;24179;52.094;4.408;2022-09-01T20:25:31;18.40;96.40
38398;DHT22;24179;52.094;4.408;2022-09-01T20:28:44;18.40;96.70
38398;DHT22;24179;52.094;4.408;2022-09-01T20:31:48;18.50;96.50
38398;DHT22;24179;52.094;4.408;2022-09-01T20:34:50;18.50;96.70
38398;DHT22;24179;52.094;4.408;2022-09-01T20:37:55;18.50;96.70
38398;DHT22;24179;52.094;4.408;2022-09-01T20:41:03;18.40;96.80
38398;DHT22;24179;52.094;4.408;2022-09-01T20:44:06;18.30;97.20
38398;DHT22;24179;52.094;4.408;2022-09-01T20:47:08;18.30;97.20
38398;DHT22;24179;52.094;4.408;2022-09-01T20:50:10;18.30;97.50
38398;DHT22;24179;52.094;4.408;2022-09-01T20:56:22;18.30;97.60
38398;DHT22;24179;52.094;4.408;2022-09-01T21:02:31;18.40;97.40
38398;DHT22;24179;52.094;4.408;2022-09-01T21:08:45;18.40;97.10
38398;DHT22;24179;52.094;4.408;2022-09-01T21:18:04;18.50;97.50
38398;DHT22;24179;52.094;4.408;2022-09-01T21:21:17;18.40;97.70
38398;DHT22;24179;52.094;4.408;2022-09-01T21:24:19;18.40;97.50
38398;DHT22;24179;52.094;4.408;2022-09-01T21:27:21;18.40;97.70
38398;DHT22;24179;52.094;4.408;2022-09-01T21:30:22;18.40;97.70
38398;DHT22;24179;52.094;4.408;2022-09-01T21:33:24;18.30;97.80
38398;DHT22;24179;52.094;4.408;2022-09-01T21:36:25;18.20;97.60
38398;DHT22;24179;52.094;4.408;2022-09-01T21:39:25;18.20;98.00
38398;DHT22;24179;52.094;4.408;2022-09-01T21:42:31;18.20;98.00
38398;DHT22;24179;52.094;4.408;2022-09-01T21:45:33;18.10;98.10
38398;DHT22;24179;52.094;4.408;2022-09-01T21:48:34;18.10;98.20
38398;DHT22;24179;52.094;4.408;2022-09-01T21:51:35;18.00;98.00
38398;DHT22;24179;52.094;4.408;2022-09-01T21:54:35;18.00;98.00
38398;DHT22;24179;52.094;4.408;2022-09-01T21:57:36;17.90;98.30
38398;DHT22;24179;52.094;4.408;2022-09-01T22:00:37;17.90;98.00
38398;DHT22;24179;52.094;4.408;2022-09-01T22:03:38;17.80;98.20
38398;DHT22;24179;52.094;4.408;2022-09-01T22:06:39;17.80;98.10